Latest Weather Observations for Busselton Jetty

IDW60801

Issued at 5:43 pm WST Sunday 21 December 2014 (issued every 30 minutes, with the page automatically refreshed every 10 minutes)

About weather observations | Map of weather stations | Latest weather observations for WA | Other Formats
Station Details ID: 009937 Name: BUSSELTON JETTY Lat: -33.63 Lon: 115.34 Height: 3.0 m
Data from the previous 72 hours. | See also: Recent months for locations in Western Australia
Date/Time
WST
Temp
°C
App
Temp
°C
Dew
Point
Rel
Hum
%
Delta-T
°C
Wind Press
QNH
hPa
Press
MSL
hPa
Rain
since 9 am
mm
Dir
 
Spd
km/h
Gust
km/h
Spd
kts
Gust
kts
21/05:30pm - - - - - SSW 35 44 19 24 - - -
21/05:00pm - - - - - SSW 35 43 19 23 - - -
21/04:30pm - - - - - SSW 33 39 18 21 - - -
21/04:00pm - - - - - WNW 20 26 11 14 - - -
21/03:30pm - - - - - NW 22 26 12 14 - - -
21/03:00pm - - - - - NNW 26 30 14 16 - - -
21/02:30pm - - - - - NNW 17 22 9 12 - - -
21/02:00pm - - - - - S 9 11 5 6 - - -
21/01:30pm - - - - - SSE 11 19 6 10 - - -
21/01:00pm - - - - - SSE 19 30 10 16 - - -
21/12:30pm - - - - - SSE 17 28 9 15 - - -
21/12:00pm - - - - - S 17 28 9 15 - - -
21/11:30am - - - - - S 20 32 11 17 - - -
21/11:00am - - - - - SSE 26 33 14 18 - - -
21/10:30am - - - - - S 28 39 15 21 - - -
21/10:00am - - - - - SSE 33 43 18 23 - - -
21/09:30am - - - - - SSE 39 48 21 26 - - -
21/09:00am - - - - - SSE 35 44 19 24 - - -
21/08:30am - - - - - SSE 39 50 21 27 - - -
21/08:00am - - - - - SSE 33 46 18 25 - - -
21/07:30am - - - - - SSE 35 50 19 27 - - -
21/07:00am - - - - - SSE 35 52 19 28 - - -
21/06:30am - - - - - S 30 37 16 20 - - -
21/06:00am - - - - - S 30 37 16 20 - - -
21/05:30am - - - - - S 26 33 14 18 - - -
21/05:00am - - - - - S 26 32 14 17 - - -
21/04:30am - - - - - S 24 30 13 16 - - -
21/04:00am - - - - - S 26 33 14 18 - - -
21/03:30am - - - - - SSW 24 28 13 15 - - -
21/03:00am - - - - - SSW 24 30 13 16 - - -
21/02:30am - - - - - S 26 35 14 19 - - -
21/02:00am - - - - - SSW 22 28 12 15 - - -
21/01:30am - - - - - SSW 22 30 12 16 - - -
21/01:00am - - - - - SSW 26 32 14 17 - - -
21/12:30am - - - - - SSW 20 24 11 13 - - -
21/12:00am - - - - - SSW 20 28 11 15 - - -
 
Date/Time
WST
Temp
°C
App
Temp
°C
Dew
Point
Rel
Hum
%
Delta-T
°C
Wind Press
QNH
hPa
Press
MSL
hPa
Rain
since 9 am
mm
Dir
 
Spd
km/h
Gust
km/h
Spd
kts
Gust
kts
20/11:30pm - - - - - SSW 22 28 12 15 - - -
20/11:00pm - - - - - SSW 24 32 13 17 - - -
20/10:30pm - - - - - SSW 24 30 13 16 - - -
20/10:00pm - - - - - S 24 30 13 16 - - -
20/09:30pm - - - - - S 28 37 15 20 - - -
20/09:00pm - - - - - S 32 43 17 23 - - -
20/08:30pm - - - - - S 30 39 16 21 - - -
20/08:00pm - - - - - S 28 44 15 24 - - -
20/07:30pm - - - - - SSW 33 46 18 25 - - -
20/07:00pm - - - - - SSW 43 57 23 31 - - -
20/06:30pm - - - - - SSW 44 59 24 32 - - -
20/06:00pm - - - - - SSW 43 54 23 29 - - -
20/05:30pm - - - - - SSW 43 54 23 29 - - -
20/05:01pm - - - - - S 37 56 20 30 - - -
20/05:00pm - - - - - S 39 56 21 30 - - -
20/04:30pm - - - - - S 41 54 22 29 - - -
20/04:03pm - - - - - S 48 67 26 36 - - -
20/04:00pm - - - - - S 52 67 28 36 - - -
20/03:51pm - - - - - S 48 67 26 36 - - -
20/03:30pm - - - - - SSW 54 69 29 37 - - -
20/03:19pm - - - - - SSW 48 67 26 36 - - -
20/03:00pm - - - - - SSW 48 63 26 34 - - -
20/02:30pm - - - - - SSW 54 69 29 37 - - -
20/02:14pm - - - - - SSW 50 69 27 37 - - -
20/02:00pm - - - - - SSW 48 63 26 34 - - -
20/01:56pm - - - - - SSW 48 67 26 36 - - -
20/01:30pm - - - - - SSW 48 65 26 35 - - -
20/01:03pm - - - - - SSW 54 74 29 40 - - -
20/01:00pm - - - - - SSW 50 65 27 35 - - -
20/12:32pm - - - - - SSW 50 69 27 37 - - -
20/12:30pm - - - - - SSW 52 69 28 37 - - -
20/12:06pm - - - - - SSW 46 67 25 36 - - -
20/12:00pm - - - - - SW 50 63 27 34 - - -
20/11:30am - - - - - SSW 46 67 25 36 - - -
20/11:23am - - - - - SSW 46 67 25 36 - - -
20/11:00am - - - - - S 44 61 24 33 - - -
20/10:58am - - - - - S 43 61 23 33 - - -
20/10:30am - - - - - SSW 48 63 26 34 - - -
20/10:00am - - - - - SSW 46 61 25 33 - - -
20/09:30am - - - - - SSW 41 52 22 28 - - -
20/09:00am - - - - - SSW 43 59 23 32 - - -
20/08:30am - - - - - SSW 41 52 22 28 - - -
20/08:23am - - - - - SSW 44 63 24 34 - - -
20/08:00am - - - - - SSW 44 56 24 30 - - -
20/07:30am - - - - - SSW 41 50 22 27 - - -
20/07:09am - - - - - SSW 39 57 21 31 - - -
20/07:00am - - - - - SSW 43 52 23 28 - - -
20/06:30am - - - - - SSW 37 48 20 26 - - -
20/06:00am - - - - - SSW 33 44 18 24 - - -
20/05:30am - - - - - SSW 35 44 19 24 - - -
20/05:00am - - - - - SSW 33 43 18 23 - - -
20/04:30am - - - - - SW 32 37 17 20 - - -
20/04:00am - - - - - SW 32 37 17 20 - - -
20/03:30am - - - - - SW 30 35 16 19 - - -
20/03:00am - - - - - SSW 30 33 16 18 - - -
20/02:30am - - - - - SSW 22 28 12 15 - - -
20/02:00am - - - - - SW 28 32 15 17 - - -
20/01:30am - - - - - SSW 26 32 14 17 - - -
20/01:00am - - - - - SSW 26 32 14 17 - - -
20/12:30am - - - - - SW 24 30 13 16 - - -
20/12:00am - - - - - SSW 24 30 13 16 - - -
 
Date/Time
WST
Temp
°C
App
Temp
°C
Dew
Point
Rel
Hum
%
Delta-T
°C
Wind Press
QNH
hPa
Press
MSL
hPa
Rain
since 9 am
mm
Dir
 
Spd
km/h
Gust
km/h
Spd
kts
Gust
kts
19/11:30pm - - - - - SSW 24 30 13 16 - - -
19/11:00pm - - - - - SSW 30 33 16 18 - - -
19/10:30pm - - - - - SSW 26 33 14 18 - - -
19/10:00pm - - - - - SSW 28 35 15 19 - - -
19/09:30pm - - - - - SSW 32 35 17 19 - - -
19/09:00pm - - - - - SSW 32 39 17 21 - - -
19/08:30pm - - - - - SSW 33 39 18 21 - - -
19/08:00pm - - - - - SSW 35 44 19 24 - - -
19/07:30pm - - - - - SSW 37 46 20 25 - - -
19/07:00pm - - - - - SSW 39 48 21 26 - - -
19/06:30pm - - - - - SSW 46 54 25 29 - - -
19/06:00pm - - - - - SSW 46 57 25 31 - - -
19/05:30pm - - - - - SSW 44 54 24 29 - - -
19/05:00pm - - - - - SW 39 43 21 23 - - -
19/04:30pm - - - - - SW 37 43 20 23 - - -
19/04:00pm - - - - - SW 32 39 17 21 - - -
19/03:55pm - - - - - SW 22 39 12 21 - - -
19/03:30pm - - - - - NW 17 19 9 10 - - -
19/03:00pm - - - - - NW 15 17 8 9 - - -
19/02:30pm - - - - - NW 15 20 8 11 - - -
19/02:00pm - - - - - NW 9 11 5 6 - - -
19/01:30pm - - - - - NW 11 13 6 7 - - -
19/01:00pm - - - - - NW 17 17 9 9 - - -
19/12:30pm - - - - - NW 19 20 10 11 - - -
19/12:00pm - - - - - NW 19 20 10 11 - - -
19/11:30am - - - - - NW 15 17 8 9 - - -
19/11:00am - - - - - NNW 13 17 7 9 - - -
19/10:30am - - - - - ENE 9 15 5 8 - - -
19/10:00am - - - - - ENE 17 19 9 10 - - -
19/09:30am - - - - - E 20 24 11 13 - - -
19/09:00am - - - - - ENE 9 13 5 7 - - -
19/08:30am - - - - - SE 7 11 4 6 - - -
19/08:00am - - - - - ESE 7 9 4 5 - - -
19/07:30am - - - - - SSE 11 13 6 7 - - -
19/07:00am - - - - - S 13 15 7 8 - - -
19/06:30am - - - - - SSW 15 17 8 9 - - -
19/06:00am - - - - - SSW 15 19 8 10 - - -
19/05:30am - - - - - SSW 15 17 8 9 - - -
19/05:00am - - - - - SSW 17 19 9 10 - - -
19/04:30am - - - - - SSW 19 22 10 12 - - -
19/04:00am - - - - - SSW 17 19 9 10 - - -
19/03:30am - - - - - SSW 19 22 10 12 - - -
19/03:00am - - - - - SSW 19 22 10 12 - - -
19/02:30am - - - - - SSW 17 19 9 10 - - -
19/02:00am - - - - - SSW 17 19 9 10 - - -
19/01:30am - - - - - SSW 17 19 9 10 - - -
19/01:00am - - - - - SSW 15 20 8 11 - - -
19/12:30am - - - - - SSW 15 19 8 10 - - -
19/12:00am - - - - - SSW 13 17 7 9 - - -
 
Date/Time
WST
Temp
°C
App
Temp
°C
Dew
Point
Rel
Hum
%
Delta-T
°C
Wind Press
QNH
hPa
Press
MSL
hPa
Rain
since 9 am
mm
Dir
 
Spd
km/h
Gust
km/h
Spd
kts
Gust
kts
18/11:30pm - - - - - SSW 19 26 10 14 - - -
18/11:00pm - - - - - S 22 30 12 16 - - -
18/10:30pm - - - - - SSW 22 28 12 15 - - -
18/10:00pm - - - - - SSW 26 32 14 17 - - -
18/09:30pm - - - - - SSW 30 37 16 20 - - -
18/09:00pm - - - - - SSW 28 37 15 20 - - -
18/08:30pm - - - - - SSW 33 39 18 21 - - -
18/08:00pm - - - - - SSW 37 48 20 26 - - -
18/07:30pm - - - - - SSW 39 48 21 26 - - -
18/07:00pm - - - - - SSW 37 44 20 24 - - -
18/06:30pm - - - - - SW 35 43 19 23 - - -
18/06:00pm - - - - - SW 37 41 20 22 - - -

Other Formats:

Comma delimited format used in spreadsheet applications
http://www.bom.gov.au/fwo/IDW60801/IDW60801.95602.axf

JavaScript Object Notation format (JSON) in row-major order
http://www.bom.gov.au/fwo/IDW60801/IDW60801.95602.json